sensor_id;sensor_type;location;lat;lon;timestamp;temperature;humidity
16503;DHT22;53067;48.114;11.694;2023-03-19T00:00:47;9.10;71.70
16503;DHT22;53067;48.114;11.694;2023-03-19T00:03:14;9.00;71.90
16503;DHT22;53067;48.114;11.694;2023-03-19T00:05:54;9.00;72.10
16503;DHT22;53067;48.114;11.694;2023-03-19T00:08:19;9.00;72.00
16503;DHT22;53067;48.114;11.694;2023-03-19T00:10:46;9.00;71.80
16503;DHT22;53067;48.114;11.694;2023-03-19T00:13:14;9.00;71.70
16503;DHT22;53067;48.114;11.694;2023-03-19T00:15:41;9.00;71.80
16503;DHT22;53067;48.114;11.694;2023-03-19T00:18:09;9.00;71.80
16503;DHT22;53067;48.114;11.694;2023-03-19T00:20:42;9.00;71.90
16503;DHT22;53067;48.114;11.694;2023-03-19T00:23:10;9.00;72.10
16503;DHT22;53067;48.114;11.694;2023-03-19T00:25:37;8.90;72.40
16503;DHT22;53067;48.114;11.694;2023-03-19T00:28:05;8.90;72.30
16503;DHT22;53067;48.114;11.694;2023-03-19T00:30:33;8.90;72.30
16503;DHT22;53067;48.114;11.694;2023-03-19T00:33:00;8.90;72.10
16503;DHT22;53067;48.114;11.694;2023-03-19T00:35:28;8.90;71.50
16503;DHT22;53067;48.114;11.694;2023-03-19T00:38:05;8.90;72.20
16503;DHT22;53067;48.114;11.694;2023-03-19T00:40:32;8.80;72.30
16503;DHT22;53067;48.114;11.694;2023-03-19T00:43:00;8.80;72.60
16503;DHT22;53067;48.114;11.694;2023-03-19T00:45:27;8.70;72.80
16503;DHT22;53067;48.114;11.694;2023-03-19T00:47:56;8.70;72.70
16503;DHT22;53067;48.114;11.694;2023-03-19T00:50:24;8.70;72.60
16503;DHT22;53067;48.114;11.694;2023-03-19T00:52:52;8.70;72.60
16503;DHT22;53067;48.114;11.694;2023-03-19T00:55:20;8.70;72.90
16503;DHT22;53067;48.114;11.694;2023-03-19T00:57:47;8.60;73.20
16503;DHT22;53067;48.114;11.694;2023-03-19T01:00:15;8.50;73.50
16503;DHT22;53067;48.114;11.694;2023-03-19T01:02:43;8.50;73.60
16503;DHT22;53067;48.114;11.694;2023-03-19T01:05:11;8.50;73.80
16503;DHT22;53067;48.114;11.694;2023-03-19T01:07:39;8.50;74.00
16503;DHT22;53067;48.114;11.694;2023-03-19T01:12:55;8.30;74.20
16503;DHT22;53067;48.114;11.694;2023-03-19T01:15:22;8.40;74.20
16503;DHT22;53067;48.114;11.694;2023-03-19T01:17:50;8.30;74.30
16503;DHT22;53067;48.114;11.694;2023-03-19T01:20:17;8.30;74.60
16503;DHT22;53067;48.114;11.694;2023-03-19T01:22:45;8.20;74.00
16503;DHT22;53067;48.114;11.694;2023-03-19T01:25:13;8.20;74.70
16503;DHT22;53067;48.114;11.694;2023-03-19T01:27:41;8.20;74.80
16503;DHT22;53067;48.114;11.694;2023-03-19T01:30:09;8.10;74.70
16503;DHT22;53067;48.114;11.694;2023-03-19T01:32:37;8.20;74.80
16503;DHT22;53067;48.114;11.694;2023-03-19T01:35:06;8.20;75.10
16503;DHT22;53067;48.114;11.694;2023-03-19T01:37:37;8.10;75.30
16503;DHT22;53067;48.114;11.694;2023-03-19T01:40:06;8.10;75.20
16503;DHT22;53067;48.114;11.694;2023-03-19T01:42:49;8.10;75.30
16503;DHT22;53067;48.114;11.694;2023-03-19T01:45:26;8.10;75.30
16503;DHT22;53067;48.114;11.694;2023-03-19T01:47:35;8.10;75.40
16503;DHT22;53067;48.114;11.694;2023-03-19T01:50:04;8.10;75.60
16503;DHT22;53067;48.114;11.694;2023-03-19T01:52:38;8.10;75.60
16503;DHT22;53067;48.114;11.694;2023-03-19T01:55:06;8.10;75.70
16503;DHT22;53067;48.114;11.694;2023-03-19T01:57:34;8.10;75.70
16503;DHT22;53067;48.114;11.694;2023-03-19T02:00:03;8.10;75.80
16503;DHT22;53067;48.114;11.694;2023-03-19T02:05:21;8.00;75.80
16503;DHT22;53067;48.114;11.694;2023-03-19T02:07:59;8.00;75.80
16503;DHT22;53067;48.114;11.694;2023-03-19T02:13:16;8.00;75.70
16503;DHT22;53067;48.114;11.694;2023-03-19T02:15:44;8.00;75.70
16503;DHT22;53067;48.114;11.694;2023-03-19T02:18:12;7.90;75.60
16503;DHT22;53067;48.114;11.694;2023-03-19T02:20:54;7.90;75.50
16503;DHT22;53067;48.114;11.694;2023-03-19T02:23:44;7.90;75.20
16503;DHT22;53067;48.114;11.694;2023-03-19T02:26:17;7.90;75.60
16503;DHT22;53067;48.114;11.694;2023-03-19T02:28:47;7.80;75.70
16503;DHT22;53067;48.114;11.694;2023-03-19T02:31:16;7.70;75.60
16503;DHT22;53067;48.114;11.694;2023-03-19T02:33:55;7.80;75.80
16503;DHT22;53067;48.114;11.694;2023-03-19T02:36:16;7.70;75.90
16503;DHT22;53067;48.114;11.694;2023-03-19T02:38:46;7.70;76.10
16503;DHT22;53067;48.114;11.694;2023-03-19T02:41:14;7.70;76.00
16503;DHT22;53067;48.114;11.694;2023-03-19T02:43:42;7.70;76.30
16503;DHT22;53067;48.114;11.694;2023-03-19T02:46:11;7.70;77.10
16503;DHT22;53067;48.114;11.694;2023-03-19T02:48:39;7.60;76.60
16503;DHT22;53067;48.114;11.694;2023-03-19T02:51:06;7.60;76.70
16503;DHT22;53067;48.114;11.694;2023-03-19T02:53:34;7.50;76.70
16503;DHT22;53067;48.114;11.694;2023-03-19T02:56:02;7.50;76.60
16503;DHT22;53067;48.114;11.694;2023-03-19T02:58:30;7.60;76.50
16503;DHT22;53067;48.114;11.694;2023-03-19T03:00:57;7.50;76.70
16503;DHT22;53067;48.114;11.694;2023-03-19T03:03:25;7.50;76.80
16503;DHT22;53067;48.114;11.694;2023-03-19T03:05:53;7.50;76.80
16503;DHT22;53067;48.114;11.694;2023-03-19T03:08:20;7.50;76.80
16503;DHT22;53067;48.114;11.694;2023-03-19T03:10:48;7.50;76.50
16503;DHT22;53067;48.114;11.694;2023-03-19T03:13:16;7.50;76.10
16503;DHT22;53067;48.114;11.694;2023-03-19T03:15:43;7.50;76.00
16503;DHT22;53067;48.114;11.694;2023-03-19T03:18:11;7.50;76.00
16503;DHT22;53067;48.114;11.694;2023-03-19T03:20:38;7.50;76.10
16503;DHT22;53067;48.114;11.694;2023-03-19T03:23:06;7.40;76.50
16503;DHT22;53067;48.114;11.694;2023-03-19T03:25:34;7.30;76.60
16503;DHT22;53067;48.114;11.694;2023-03-19T03:28:02;7.30;76.50
16503;DHT22;53067;48.114;11.694;2023-03-19T03:30:30;7.30;76.60
16503;DHT22;53067;48.114;11.694;2023-03-19T03:32:58;7.30;76.80
16503;DHT22;53067;48.114;11.694;2023-03-19T03:35:25;7.30;77.10
16503;DHT22;53067;48.114;11.694;2023-03-19T03:37:53;7.30;77.00
16503;DHT22;53067;48.114;11.694;2023-03-19T03:40:20;7.20;77.20
16503;DHT22;53067;48.114;11.694;2023-03-19T03:42:48;7.20;77.40
16503;DHT22;53067;48.114;11.694;2023-03-19T03:45:16;7.20;77.50
16503;DHT22;53067;48.114;11.694;2023-03-19T03:47:44;7.10;77.70
16503;DHT22;53067;48.114;11.694;2023-03-19T03:50:12;7.10;77.70
16503;DHT22;53067;48.114;11.694;2023-03-19T03:52:40;7.20;77.80
16503;DHT22;53067;48.114;11.694;2023-03-19T03:55:08;7.20;77.60
16503;DHT22;53067;48.114;11.694;2023-03-19T03:57:36;7.10;77.80
16503;DHT22;53067;48.114;11.694;2023-03-19T04:00:04;7.10;78.10
16503;DHT22;53067;48.114;11.694;2023-03-19T04:02:32;7.10;78.30
16503;DHT22;53067;48.114;11.694;2023-03-19T04:05:00;7.10;78.30
16503;DHT22;53067;48.114;11.694;2023-03-19T04:07:27;7.10;78.30
16503;DHT22;53067;48.114;11.694;2023-03-19T04:09:56;7.20;78.20
16503;DHT22;53067;48.114;11.694;2023-03-19T04:12:24;7.20;77.70
16503;DHT22;53067;48.114;11.694;2023-03-19T04:14:52;7.20;77.40
16503;DHT22;53067;48.114;11.694;2023-03-19T04:17:19;7.30;77.40
16503;DHT22;53067;48.114;11.694;2023-03-19T04:19:47;7.20;77.60
16503;DHT22;53067;48.114;11.694;2023-03-19T04:22:15;7.20;77.60
16503;DHT22;53067;48.114;11.694;2023-03-19T04:24:42;7.20;77.50
16503;DHT22;53067;48.114;11.694;2023-03-19T04:27:10;7.20;77.70
16503;DHT22;53067;48.114;11.694;2023-03-19T04:29:38;7.20;78.00
16503;DHT22;53067;48.114;11.694;2023-03-19T04:32:06;7.20;78.70
16503;DHT22;53067;48.114;11.694;2023-03-19T04:34:33;7.20;78.70
16503;DHT22;53067;48.114;11.694;2023-03-19T04:37:01;7.30;78.20
16503;DHT22;53067;48.114;11.694;2023-03-19T04:39:28;7.30;78.00
16503;DHT22;53067;48.114;11.694;2023-03-19T04:41:57;7.40;77.70
16503;DHT22;53067;48.114;11.694;2023-03-19T04:44:24;7.40;77.50
16503;DHT22;53067;48.114;11.694;2023-03-19T04:46:52;7.50;77.70
16503;DHT22;53067;48.114;11.694;2023-03-19T04:49:20;7.50;77.70
16503;DHT22;53067;48.114;11.694;2023-03-19T04:51:47;7.50;77.60
16503;DHT22;53067;48.114;11.694;2023-03-19T04:54:15;7.50;77.50
16503;DHT22;53067;48.114;11.694;2023-03-19T04:56:43;7.60;77.40
16503;DHT22;53067;48.114;11.694;2023-03-19T04:59:11;7.60;77.40
16503;DHT22;53067;48.114;11.694;2023-03-19T05:01:38;7.60;77.20
16503;DHT22;53067;48.114;11.694;2023-03-19T05:04:06;7.60;77.30
16503;DHT22;53067;48.114;11.694;2023-03-19T05:06:34;7.60;77.10
16503;DHT22;53067;48.114;11.694;2023-03-19T05:09:03;7.60;77.20
16503;DHT22;53067;48.114;11.694;2023-03-19T05:11:32;7.60;77.20
16503;DHT22;53067;48.114;11.694;2023-03-19T05:13:59;7.60;77.20
16503;DHT22;53067;48.114;11.694;2023-03-19T05:16:27;7.60;77.20
16503;DHT22;53067;48.114;11.694;2023-03-19T05:18:54;7.60;77.10
16503;DHT22;53067;48.114;11.694;2023-03-19T05:21:22;7.60;77.10
16503;DHT22;53067;48.114;11.694;2023-03-19T05:23:49;7.60;77.10
16503;DHT22;53067;48.114;11.694;2023-03-19T05:26:19;7.60;76.90
16503;DHT22;53067;48.114;11.694;2023-03-19T05:28:46;7.60;77.40
16503;DHT22;53067;48.114;11.694;2023-03-19T05:31:14;7.70;77.50
16503;DHT22;53067;48.114;11.694;2023-03-19T05:33:42;7.70;77.60
16503;DHT22;53067;48.114;11.694;2023-03-19T05:36:09;7.70;77.80
16503;DHT22;53067;48.114;11.694;2023-03-19T05:38:37;7.80;77.90
16503;DHT22;53067;48.114;11.694;2023-03-19T05:41:06;7.80;78.30
16503;DHT22;53067;48.114;11.694;2023-03-19T05:43:33;7.90;78.40
16503;DHT22;53067;48.114;11.694;2023-03-19T05:46:01;7.90;78.30
16503;DHT22;53067;48.114;11.694;2023-03-19T05:48:28;8.00;78.50
16503;DHT22;53067;48.114;11.694;2023-03-19T05:50:56;8.10;78.50
16503;DHT22;53067;48.114;11.694;2023-03-19T05:53:24;8.10;78.80
16503;DHT22;53067;48.114;11.694;2023-03-19T05:55:52;8.20;79.50
16503;DHT22;53067;48.114;11.694;2023-03-19T05:58:20;8.30;78.70
16503;DHT22;53067;48.114;11.694;2023-03-19T06:00:48;8.30;78.50
16503;DHT22;53067;48.114;11.694;2023-03-19T06:03:16;8.40;78.30
16503;DHT22;53067;48.114;11.694;2023-03-19T06:05:44;8.50;78.10
16503;DHT22;53067;48.114;11.694;2023-03-19T06:08:12;8.60;77.90
16503;DHT22;53067;48.114;11.694;2023-03-19T06:10:39;8.60;77.70
16503;DHT22;53067;48.114;11.694;2023-03-19T06:13:07;8.70;77.70
16503;DHT22;53067;48.114;11.694;2023-03-19T06:15:35;8.80;77.50
16503;DHT22;53067;48.114;11.694;2023-03-19T06:18:03;8.80;77.40
16503;DHT22;53067;48.114;11.694;2023-03-19T06:20:31;8.90;77.50
16503;DHT22;53067;48.114;11.694;2023-03-19T06:22:59;9.00;77.20
16503;DHT22;53067;48.114;11.694;2023-03-19T06:25:26;9.10;77.00
16503;DHT22;53067;48.114;11.694;2023-03-19T06:27:54;9.10;76.80
16503;DHT22;53067;48.114;11.694;2023-03-19T06:30:21;9.20;76.60
16503;DHT22;53067;48.114;11.694;2023-03-19T06:32:49;9.30;76.50
16503;DHT22;53067;48.114;11.694;2023-03-19T06:35:17;9.30;76.30
16503;DHT22;53067;48.114;11.694;2023-03-19T06:37:44;9.40;76.50
16503;DHT22;53067;48.114;11.694;2023-03-19T06:40:13;9.50;76.30
16503;DHT22;53067;48.114;11.694;2023-03-19T06:42:45;9.50;76.10
16503;DHT22;53067;48.114;11.694;2023-03-19T06:45:13;9.60;76.00
16503;DHT22;53067;48.114;11.694;2023-03-19T06:47:45;9.70;75.90
16503;DHT22;53067;48.114;11.694;2023-03-19T06:50:14;9.80;75.70
16503;DHT22;53067;48.114;11.694;2023-03-19T06:52:43;9.80;75.60
16503;DHT22;53067;48.114;11.694;2023-03-19T06:55:11;9.90;75.50
16503;DHT22;53067;48.114;11.694;2023-03-19T06:57:38;9.90;75.40
16503;DHT22;53067;48.114;11.694;2023-03-19T07:00:07;10.00;75.50
16503;DHT22;53067;48.114;11.694;2023-03-19T07:02:36;10.00;75.50
16503;DHT22;53067;48.114;11.694;2023-03-19T07:05:06;10.10;75.20
16503;DHT22;53067;48.114;11.694;2023-03-19T07:07:33;10.10;75.40
16503;DHT22;53067;48.114;11.694;2023-03-19T07:10:01;10.10;75.20
16503;DHT22;53067;48.114;11.694;2023-03-19T07:12:29;10.20;75.10
16503;DHT22;53067;48.114;11.694;2023-03-19T07:14:57;10.20;75.10
16503;DHT22;53067;48.114;11.694;2023-03-19T07:17:25;10.20;74.90
16503;DHT22;53067;48.114;11.694;2023-03-19T07:19:52;10.30;74.60
16503;DHT22;53067;48.114;11.694;2023-03-19T07:22:20;10.40;74.30
16503;DHT22;53067;48.114;11.694;2023-03-19T07:24:47;10.40;74.10
16503;DHT22;53067;48.114;11.694;2023-03-19T07:27:15;10.50;74.00
16503;DHT22;53067;48.114;11.694;2023-03-19T07:29:43;10.50;73.90
16503;DHT22;53067;48.114;11.694;2023-03-19T07:32:10;10.60;74.30
16503;DHT22;53067;48.114;11.694;2023-03-19T07:34:38;10.60;74.90
16503;DHT22;53067;48.114;11.694;2023-03-19T07:37:06;10.60;75.00
16503;DHT22;53067;48.114;11.694;2023-03-19T07:39:34;10.60;75.60
16503;DHT22;53067;48.114;11.694;2023-03-19T07:42:01;10.60;75.70
16503;DHT22;53067;48.114;11.694;2023-03-19T07:44:29;10.60;75.60
16503;DHT22;53067;48.114;11.694;2023-03-19T07:46:57;10.60;75.70
16503;DHT22;53067;48.114;11.694;2023-03-19T07:49:25;10.70;75.90
16503;DHT22;53067;48.114;11.694;2023-03-19T07:51:52;10.70;76.50
16503;DHT22;53067;48.114;11.694;2023-03-19T07:54:20;10.70;75.60
16503;DHT22;53067;48.114;11.694;2023-03-19T07:56:49;10.80;75.90
16503;DHT22;53067;48.114;11.694;2023-03-19T07:59:16;10.80;75.70
16503;DHT22;53067;48.114;11.694;2023-03-19T08:01:44;10.80;75.60
16503;DHT22;53067;48.114;11.694;2023-03-19T08:04:12;10.80;75.40
16503;DHT22;53067;48.114;11.694;2023-03-19T08:06:41;10.90;75.80
16503;DHT22;53067;48.114;11.694;2023-03-19T08:09:08;10.90;75.70
16503;DHT22;53067;48.114;11.694;2023-03-19T08:11:36;10.90;76.60
16503;DHT22;53067;48.114;11.694;2023-03-19T08:14:03;10.90;76.20
16503;DHT22;53067;48.114;11.694;2023-03-19T08:16:31;11.00;76.50
16503;DHT22;53067;48.114;11.694;2023-03-19T08:18:59;11.00;76.60
16503;DHT22;53067;48.114;11.694;2023-03-19T08:21:26;11.00;77.10
16503;DHT22;53067;48.114;11.694;2023-03-19T08:23:55;11.10;77.10
16503;DHT22;53067;48.114;11.694;2023-03-19T08:26:22;11.00;77.00
16503;DHT22;53067;48.114;11.694;2023-03-19T08:28:50;11.10;77.10
16503;DHT22;53067;48.114;11.694;2023-03-19T08:31:17;11.00;76.90
16503;DHT22;53067;48.114;11.694;2023-03-19T08:33:45;11.10;76.80
16503;DHT22;53067;48.114;11.694;2023-03-19T08:36:14;11.10;76.60
16503;DHT22;53067;48.114;11.694;2023-03-19T08:38:42;11.20;76.70
16503;DHT22;53067;48.114;11.694;2023-03-19T08:41:10;11.20;76.70
16503;DHT22;53067;48.114;11.694;2023-03-19T08:43:37;11.20;76.90
16503;DHT22;53067;48.114;11.694;2023-03-19T08:46:05;11.20;77.00
16503;DHT22;53067;48.114;11.694;2023-03-19T08:48:32;11.20;77.10
16503;DHT22;53067;48.114;11.694;2023-03-19T08:51:01;11.20;76.80
16503;DHT22;53067;48.114;11.694;2023-03-19T08:53:30;11.30;76.80
16503;DHT22;53067;48.114;11.694;2023-03-19T08:56:00;11.30;76.70
16503;DHT22;53067;48.114;11.694;2023-03-19T08:58:29;11.30;76.80
16503;DHT22;53067;48.114;11.694;2023-03-19T09:01:05;11.30;76.70
16503;DHT22;53067;48.114;11.694;2023-03-19T09:03:34;11.30;77.50
16503;DHT22;53067;48.114;11.694;2023-03-19T09:06:03;11.30;77.20
16503;DHT22;53067;48.114;11.694;2023-03-19T09:08:32;11.40;77.00
16503;DHT22;53067;48.114;11.694;2023-03-19T09:10:59;11.50;76.40
16503;DHT22;53067;48.114;11.694;2023-03-19T09:13:27;11.60;76.20
16503;DHT22;53067;48.114;11.694;2023-03-19T09:15:55;11.60;75.80
16503;DHT22;53067;48.114;11.694;2023-03-19T09:18:22;11.60;75.70
16503;DHT22;53067;48.114;11.694;2023-03-19T09:20:51;11.70;75.70
16503;DHT22;53067;48.114;11.694;2023-03-19T09:23:20;11.70;75.60
16503;DHT22;53067;48.114;11.694;2023-03-19T09:25:48;11.80;75.60
16503;DHT22;53067;48.114;11.694;2023-03-19T09:28:16;11.80;75.30
16503;DHT22;53067;48.114;11.694;2023-03-19T09:30:48;11.90;75.00
16503;DHT22;53067;48.114;11.694;2023-03-19T09:33:17;12.00;74.70
16503;DHT22;53067;48.114;11.694;2023-03-19T09:35:50;12.00;74.10
16503;DHT22;53067;48.114;11.694;2023-03-19T09:38:22;12.10;74.20
16503;DHT22;53067;48.114;11.694;2023-03-19T09:41:15;12.20;73.70
16503;DHT22;53067;48.114;11.694;2023-03-19T09:44:00;12.30;73.30
16503;DHT22;53067;48.114;11.694;2023-03-19T09:46:44;12.30;73.50
16503;DHT22;53067;48.114;11.694;2023-03-19T09:49:15;12.40;73.00
16503;DHT22;53067;48.114;11.694;2023-03-19T09:51:51;12.50;72.50
16503;DHT22;53067;48.114;11.694;2023-03-19T09:54:34;12.50;72.70
16503;DHT22;53067;48.114;11.694;2023-03-19T09:56:59;12.50;72.30
16503;DHT22;53067;48.114;11.694;2023-03-19T09:59:28;12.50;71.90
16503;DHT22;53067;48.114;11.694;2023-03-19T10:02:12;12.50;71.70
16503;DHT22;53067;48.114;11.694;2023-03-19T10:04:49;12.50;71.90
16503;DHT22;53067;48.114;11.694;2023-03-19T10:08:16;12.60;72.40
16503;DHT22;53067;48.114;11.694;2023-03-19T10:15:30;12.70;71.50
16503;DHT22;53067;48.114;11.694;2023-03-19T10:18:16;12.80;70.80
16503;DHT22;53067;48.114;11.694;2023-03-19T10:20:46;12.90;70.70
16503;DHT22;53067;48.114;11.694;2023-03-19T10:25:59;13.20;71.60
16503;DHT22;53067;48.114;11.694;2023-03-19T10:28:28;13.40;70.90
16503;DHT22;53067;48.114;11.694;2023-03-19T10:34:06;13.80;68.90
16503;DHT22;53067;48.114;11.694;2023-03-19T10:36:36;14.00;66.50
16503;DHT22;53067;48.114;11.694;2023-03-19T10:39:01;14.10;66.20
16503;DHT22;53067;48.114;11.694;2023-03-19T10:41:53;14.20;66.20
16503;DHT22;53067;48.114;11.694;2023-03-19T10:44:33;14.40;66.00
16503;DHT22;53067;48.114;11.694;2023-03-19T10:47:08;14.50;63.30
16503;DHT22;53067;48.114;11.694;2023-03-19T10:49:28;14.50;64.20
16503;DHT22;53067;48.114;11.694;2023-03-19T10:51:57;14.50;63.00
16503;DHT22;53067;48.114;11.694;2023-03-19T10:54:27;14.40;63.00
16503;DHT22;53067;48.114;11.694;2023-03-19T10:56:57;14.40;63.40
16503;DHT22;53067;48.114;11.694;2023-03-19T10:59:31;14.40;63.30
16503;DHT22;53067;48.114;11.694;2023-03-19T11:02:23;14.30;63.70
16503;DHT22;53067;48.114;11.694;2023-03-19T11:07:42;14.30;64.00
16503;DHT22;53067;48.114;11.694;2023-03-19T11:10:16;14.40;63.90
16503;DHT22;53067;48.114;11.694;2023-03-19T11:13:24;14.40;64.00
16503;DHT22;53067;48.114;11.694;2023-03-19T11:15:38;14.40;63.60
16503;DHT22;53067;48.114;11.694;2023-03-19T11:20:47;14.50;62.90
16503;DHT22;53067;48.114;11.694;2023-03-19T11:23:15;14.60;62.40
16503;DHT22;53067;48.114;11.694;2023-03-19T11:25:51;14.60;61.00
16503;DHT22;53067;48.114;11.694;2023-03-19T11:28:23;14.50;60.80
16503;DHT22;53067;48.114;11.694;2023-03-19T11:36:28;14.50;61.70
16503;DHT22;53067;48.114;11.694;2023-03-19T11:39:21;14.60;60.50
16503;DHT22;53067;48.114;11.694;2023-03-19T11:41:56;14.50;60.40
16503;DHT22;53067;48.114;11.694;2023-03-19T11:44:39;14.60;61.20
16503;DHT22;53067;48.114;11.694;2023-03-19T11:47:14;14.60;60.30
16503;DHT22;53067;48.114;11.694;2023-03-19T11:53:00;14.60;61.10
16503;DHT22;53067;48.114;11.694;2023-03-19T11:55:40;14.70;59.70
16503;DHT22;53067;48.114;11.694;2023-03-19T12:01:05;14.80;59.10
16503;DHT22;53067;48.114;11.694;2023-03-19T12:09:17;15.60;57.80
16503;DHT22;53067;48.114;11.694;2023-03-19T12:14:41;16.10;56.80
16503;DHT22;53067;48.114;11.694;2023-03-19T12:17:22;16.20;55.30
16503;DHT22;53067;48.114;11.694;2023-03-19T12:20:12;16.20;55.30
16503;DHT22;53067;48.114;11.694;2023-03-19T12:23:15;16.10;55.30
16503;DHT22;53067;48.114;11.694;2023-03-19T12:25:54;16.10;56.90
16503;DHT22;53067;48.114;11.694;2023-03-19T12:28:22;16.10;56.30
16503;DHT22;53067;48.114;11.694;2023-03-19T12:34:40;16.20;55.70
16503;DHT22;53067;48.114;11.694;2023-03-19T12:36:26;16.50;55.20
16503;DHT22;53067;48.114;11.694;2023-03-19T12:38:58;16.70;55.30
16503;DHT22;53067;48.114;11.694;2023-03-19T12:41:27;17.10;54.70
16503;DHT22;53067;48.114;11.694;2023-03-19T12:44:31;17.70;53.10
16503;DHT22;53067;48.114;11.694;2023-03-19T12:47:09;18.40;51.40
16503;DHT22;53067;48.114;11.694;2023-03-19T12:49:56;19.50;49.00
16503;DHT22;53067;48.114;11.694;2023-03-19T12:57:41;22.10;42.40
16503;DHT22;53067;48.114;11.694;2023-03-19T13:00:18;23.00;39.90
16503;DHT22;53067;48.114;11.694;2023-03-19T13:05:42;24.20;37.00
16503;DHT22;53067;48.114;11.694;2023-03-19T13:08:22;24.30;35.30
16503;DHT22;53067;48.114;11.694;2023-03-19T13:10:46;24.60;35.30
16503;DHT22;53067;48.114;11.694;2023-03-19T13:13:52;25.20;33.90
16503;DHT22;53067;48.114;11.694;2023-03-19T13:16:44;25.10;33.20
16503;DHT22;53067;48.114;11.694;2023-03-19T13:19:20;24.70;33.20
16503;DHT22;53067;48.114;11.694;2023-03-19T13:21:45;24.10;33.90
16503;DHT22;53067;48.114;11.694;2023-03-19T13:24:25;23.30;35.50
16503;DHT22;53067;48.114;11.694;2023-03-19T13:26:55;22.70;36.80
16503;DHT22;53067;48.114;11.694;2023-03-19T13:29:26;21.90;37.90
16503;DHT22;53067;48.114;11.694;2023-03-19T13:32:04;21.50;39.30
16503;DHT22;53067;48.114;11.694;2023-03-19T13:34:33;21.10;39.90
16503;DHT22;53067;48.114;11.694;2023-03-19T13:37:17;20.70;40.90
16503;DHT22;53067;48.114;11.694;2023-03-19T13:39:43;20.40;41.20
16503;DHT22;53067;48.114;11.694;2023-03-19T13:42:38;20.00;41.40
16503;DHT22;53067;48.114;11.694;2023-03-19T13:45:35;19.80;42.00
16503;DHT22;53067;48.114;11.694;2023-03-19T13:56:23;18.50;45.30
16503;DHT22;53067;48.114;11.694;2023-03-19T14:01:42;18.10;46.30
16503;DHT22;53067;48.114;11.694;2023-03-19T14:04:27;17.80;47.00
16503;DHT22;53067;48.114;11.694;2023-03-19T14:07:16;17.60;47.50
16503;DHT22;53067;48.114;11.694;2023-03-19T14:12:43;17.20;48.60
16503;DHT22;53067;48.114;11.694;2023-03-19T14:15:15;17.10;49.80
16503;DHT22;53067;48.114;11.694;2023-03-19T14:17:56;16.90;49.00
16503;DHT22;53067;48.114;11.694;2023-03-19T14:20:26;16.70;49.60
16503;DHT22;53067;48.114;11.694;2023-03-19T14:23:09;16.50;49.80
16503;DHT22;53067;48.114;11.694;2023-03-19T14:25:53;16.30;50.60
16503;DHT22;53067;48.114;11.694;2023-03-19T14:28:27;16.30;51.00
16503;DHT22;53067;48.114;11.694;2023-03-19T14:30:50;16.30;51.30
16503;DHT22;53067;48.114;11.694;2023-03-19T14:33:42;16.30;51.60
16503;DHT22;53067;48.114;11.694;2023-03-19T14:36:17;16.20;51.90
16503;DHT22;53067;48.114;11.694;2023-03-19T14:38:53;16.20;52.60
16503;DHT22;53067;48.114;11.694;2023-03-19T14:41:22;16.20;52.20
16503;DHT22;53067;48.114;11.694;2023-03-19T14:49:56;16.20;52.50
16503;DHT22;53067;48.114;11.694;2023-03-19T14:52:35;16.20;51.90
16503;DHT22;53067;48.114;11.694;2023-03-19T14:55:02;16.20;51.80
16503;DHT22;53067;48.114;11.694;2023-03-19T14:57:31;16.20;52.20
16503;DHT22;53067;48.114;11.694;2023-03-19T15:00:00;16.30;52.50
16503;DHT22;53067;48.114;11.694;2023-03-19T15:02:48;16.30;51.20
16503;DHT22;53067;48.114;11.694;2023-03-19T15:07:49;16.50;50.90
16503;DHT22;53067;48.114;11.694;2023-03-19T15:10:26;16.60;51.60
16503;DHT22;53067;48.114;11.694;2023-03-19T15:18:42;16.70;51.10
16503;DHT22;53067;48.114;11.694;2023-03-19T15:21:11;16.80;50.20
16503;DHT22;53067;48.114;11.694;2023-03-19T15:23:40;16.80;50.40
16503;DHT22;53067;48.114;11.694;2023-03-19T15:26:09;16.90;50.30
16503;DHT22;53067;48.114;11.694;2023-03-19T15:28:49;16.90;50.30
16503;DHT22;53067;48.114;11.694;2023-03-19T15:31:18;16.90;49.80
16503;DHT22;53067;48.114;11.694;2023-03-19T15:33:45;16.70;49.90
16503;DHT22;53067;48.114;11.694;2023-03-19T15:36:19;16.80;50.50
16503;DHT22;53067;48.114;11.694;2023-03-19T15:39:01;16.70;50.50
16503;DHT22;53067;48.114;11.694;2023-03-19T15:41:32;16.70;50.60
16503;DHT22;53067;48.114;11.694;2023-03-19T15:44:03;16.60;50.80
16503;DHT22;53067;48.114;11.694;2023-03-19T15:46:33;16.50;50.70
16503;DHT22;53067;48.114;11.694;2023-03-19T15:49:14;16.50;50.90
16503;DHT22;53067;48.114;11.694;2023-03-19T15:51:43;16.40;51.00
16503;DHT22;53067;48.114;11.694;2023-03-19T15:54:12;16.40;51.00
16503;DHT22;53067;48.114;11.694;2023-03-19T15:56:39;16.30;50.70
16503;DHT22;53067;48.114;11.694;2023-03-19T15:59:07;16.20;51.00
16503;DHT22;53067;48.114;11.694;2023-03-19T16:01:37;16.20;51.30
16503;DHT22;53067;48.114;11.694;2023-03-19T16:04:07;16.20;51.30
16503;DHT22;53067;48.114;11.694;2023-03-19T16:06:38;16.10;50.80
16503;DHT22;53067;48.114;11.694;2023-03-19T16:11:59;16.00;51.60
16503;DHT22;53067;48.114;11.694;2023-03-19T16:14:39;15.90;52.20
16503;DHT22;53067;48.114;11.694;2023-03-19T16:17:15;15.90;52.20
16503;DHT22;53067;48.114;11.694;2023-03-19T16:19:53;15.80;52.00
16503;DHT22;53067;48.114;11.694;2023-03-19T16:22:29;15.70;52.30
16503;DHT22;53067;48.114;11.694;2023-03-19T16:24:58;15.70;52.40
16503;DHT22;53067;48.114;11.694;2023-03-19T16:27:33;15.60;52.80
16503;DHT22;53067;48.114;11.694;2023-03-19T16:30:03;15.60;53.50
16503;DHT22;53067;48.114;11.694;2023-03-19T16:32:34;15.50;54.20
16503;DHT22;53067;48.114;11.694;2023-03-19T16:35:04;15.50;54.60
16503;DHT22;53067;48.114;11.694;2023-03-19T16:42:45;15.30;55.30
16503;DHT22;53067;48.114;11.694;2023-03-19T16:45:27;15.30;55.70
16503;DHT22;53067;48.114;11.694;2023-03-19T16:47:57;15.30;56.10
16503;DHT22;53067;48.114;11.694;2023-03-19T16:50:30;15.20;56.40
16503;DHT22;53067;48.114;11.694;2023-03-19T16:53:00;15.10;56.70
16503;DHT22;53067;48.114;11.694;2023-03-19T16:55:35;15.00;56.70
16503;DHT22;53067;48.114;11.694;2023-03-19T16:58:14;15.00;57.10
16503;DHT22;53067;48.114;11.694;2023-03-19T17:00:43;14.90;57.30
16503;DHT22;53067;48.114;11.694;2023-03-19T17:03:16;14.80;57.40
16503;DHT22;53067;48.114;11.694;2023-03-19T17:05:45;14.80;57.70
16503;DHT22;53067;48.114;11.694;2023-03-19T17:08:13;14.70;58.10
16503;DHT22;53067;48.114;11.694;2023-03-19T17:10:49;14.70;58.10
16503;DHT22;53067;48.114;11.694;2023-03-19T17:13:17;14.60;58.50
16503;DHT22;53067;48.114;11.694;2023-03-19T17:15:45;14.60;58.70
16503;DHT22;53067;48.114;11.694;2023-03-19T17:18:18;14.60;58.80